sensor_id;sensor_type;location;lat;lon;timestamp;P1;durP1;ratioP1;P2;durP2;ratioP2
67776;SDS011;54576;52.020;5.536;2023-09-08T00:02:24;7.63;;;6.05;;
67776;SDS011;54576;52.020;5.536;2023-09-08T00:04:50;12.10;;;7.22;;
67776;SDS011;54576;52.020;5.536;2023-09-08T00:07:16;9.32;;;7.38;;
67776;SDS011;54576;52.020;5.536;2023-09-08T00:09:42;8.43;;;7.10;;
67776;SDS011;54576;52.020;5.536;2023-09-08T00:12:07;10.18;;;7.47;;
67776;SDS011;54576;52.020;5.536;2023-09-08T00:14:33;16.27;;;7.55;;
67776;SDS011;54576;52.020;5.536;2023-09-08T00:16:58;11.93;;;7.53;;
67776;SDS011;54576;52.020;5.536;2023-09-08T00:19:24;12.95;;;8.50;;
67776;SDS011;54576;52.020;5.536;2023-09-08T00:21:50;21.50;;;8.20;;
67776;SDS011;54576;52.020;5.536;2023-09-08T00:24:16;19.55;;;8.52;;
67776;SDS011;54576;52.020;5.536;2023-09-08T00:26:42;11.18;;;7.78;;
67776;SDS011;54576;52.020;5.536;2023-09-08T00:29:08;15.00;;;9.35;;
67776;SDS011;54576;52.020;5.536;2023-09-08T00:31:34;9.95;;;8.40;;
67776;SDS011;54576;52.020;5.536;2023-09-08T00:33:59;12.60;;;9.40;;
67776;SDS011;54576;52.020;5.536;2023-09-08T00:36:25;15.05;;;9.23;;
67776;SDS011;54576;52.020;5.536;2023-09-08T00:38:50;11.48;;;9.35;;
67776;SDS011;54576;52.020;5.536;2023-09-08T00:41:16;12.85;;;8.73;;
67776;SDS011;54576;52.020;5.536;2023-09-08T00:43:42;12.90;;;8.95;;
67776;SDS011;54576;52.020;5.536;2023-09-08T00:46:07;15.07;;;9.40;;
67776;SDS011;54576;52.020;5.536;2023-09-08T00:48:34;16.83;;;9.80;;
67776;SDS011;54576;52.020;5.536;2023-09-08T00:51:00;14.40;;;9.73;;
67776;SDS011;54576;52.020;5.536;2023-09-08T00:53:26;11.13;;;9.40;;
67776;SDS011;54576;52.020;5.536;2023-09-08T00:55:52;10.80;;;9.43;;
67776;SDS011;54576;52.020;5.536;2023-09-08T00:58:19;14.05;;;10.25;;
67776;SDS011;54576;52.020;5.536;2023-09-08T01:00:44;17.15;;;10.88;;
67776;SDS011;54576;52.020;5.536;2023-09-08T01:03:13;16.60;;;10.57;;
67776;SDS011;54576;52.020;5.536;2023-09-08T01:05:39;17.65;;;10.85;;
67776;SDS011;54576;52.020;5.536;2023-09-08T01:08:05;19.02;;;11.68;;
67776;SDS011;54576;52.020;5.536;2023-09-08T01:10:31;18.13;;;10.95;;
67776;SDS011;54576;52.020;5.536;2023-09-08T01:12:57;19.58;;;11.13;;
67776;SDS011;54576;52.020;5.536;2023-09-08T01:15:23;27.00;;;11.82;;
67776;SDS011;54576;52.020;5.536;2023-09-08T01:17:49;18.35;;;11.93;;
67776;SDS011;54576;52.020;5.536;2023-09-08T01:20:18;20.35;;;11.77;;
67776;SDS011;54576;52.020;5.536;2023-09-08T01:25:46;15.93;;;11.75;;
67776;SDS011;54576;52.020;5.536;2023-09-08T01:28:17;17.98;;;10.95;;
67776;SDS011;54576;52.020;5.536;2023-09-08T01:30:45;14.45;;;11.20;;
67776;SDS011;54576;52.020;5.536;2023-09-08T01:33:11;20.42;;;12.25;;
67776;SDS011;54576;52.020;5.536;2023-09-08T01:35:36;15.15;;;10.50;;
67776;SDS011;54576;52.020;5.536;2023-09-08T01:38:05;13.43;;;10.73;;
67776;SDS011;54576;52.020;5.536;2023-09-08T01:40:32;18.23;;;11.35;;
67776;SDS011;54576;52.020;5.536;2023-09-08T01:42:58;17.98;;;11.38;;
67776;SDS011;54576;52.020;5.536;2023-09-08T01:45:24;19.50;;;11.52;;
67776;SDS011;54576;52.020;5.536;2023-09-08T01:47:50;16.90;;;11.02;;
67776;SDS011;54576;52.020;5.536;2023-09-08T01:50:16;16.65;;;10.88;;
67776;SDS011;54576;52.020;5.536;2023-09-08T01:52:46;15.90;;;11.00;;
67776;SDS011;54576;52.020;5.536;2023-09-08T01:55:12;16.08;;;11.90;;
67776;SDS011;54576;52.020;5.536;2023-09-08T01:57:37;18.08;;;12.07;;
67776;SDS011;54576;52.020;5.536;2023-09-08T02:00:03;22.80;;;10.85;;
67776;SDS011;54576;52.020;5.536;2023-09-08T02:02:30;15.18;;;10.98;;
67776;SDS011;54576;52.020;5.536;2023-09-08T02:04:56;15.15;;;10.93;;
67776;SDS011;54576;52.020;5.536;2023-09-08T02:07:21;16.05;;;10.95;;
67776;SDS011;54576;52.020;5.536;2023-09-08T02:09:47;12.73;;;11.25;;
67776;SDS011;54576;52.020;5.536;2023-09-08T02:12:12;21.40;;;11.10;;
67776;SDS011;54576;52.020;5.536;2023-09-08T02:14:38;15.30;;;10.93;;
67776;SDS011;54576;52.020;5.536;2023-09-08T02:17:04;14.43;;;11.70;;
67776;SDS011;54576;52.020;5.536;2023-09-08T02:19:31;15.02;;;11.32;;
67776;SDS011;54576;52.020;5.536;2023-09-08T02:21:57;15.20;;;11.30;;
67776;SDS011;54576;52.020;5.536;2023-09-08T02:24:23;15.73;;;11.20;;
67776;SDS011;54576;52.020;5.536;2023-09-08T02:26:49;20.30;;;11.38;;
67776;SDS011;54576;52.020;5.536;2023-09-08T02:29:15;16.80;;;10.80;;
67776;SDS011;54576;52.020;5.536;2023-09-08T02:31:41;15.43;;;11.68;;
67776;SDS011;54576;52.020;5.536;2023-09-08T02:34:07;14.65;;;11.15;;
67776;SDS011;54576;52.020;5.536;2023-09-08T02:36:33;14.45;;;11.25;;
67776;SDS011;54576;52.020;5.536;2023-09-08T02:38:58;17.95;;;11.73;;
67776;SDS011;54576;52.020;5.536;2023-09-08T02:41:24;16.38;;;10.75;;
67776;SDS011;54576;52.020;5.536;2023-09-08T02:43:49;16.73;;;10.77;;
67776;SDS011;54576;52.020;5.536;2023-09-08T02:46:15;21.50;;;12.38;;
67776;SDS011;54576;52.020;5.536;2023-09-08T02:48:41;19.65;;;12.32;;
67776;SDS011;54576;52.020;5.536;2023-09-08T02:51:07;20.40;;;12.13;;
67776;SDS011;54576;52.020;5.536;2023-09-08T02:53:33;21.98;;;12.70;;
67776;SDS011;54576;52.020;5.536;2023-09-08T02:55:59;19.55;;;12.35;;
67776;SDS011;54576;52.020;5.536;2023-09-08T02:58:26;25.00;;;12.88;;
67776;SDS011;54576;52.020;5.536;2023-09-08T03:00:52;18.73;;;12.30;;
67776;SDS011;54576;52.020;5.536;2023-09-08T03:03:19;15.73;;;12.10;;
67776;SDS011;54576;52.020;5.536;2023-09-08T03:05:45;20.48;;;12.75;;
67776;SDS011;54576;52.020;5.536;2023-09-08T03:08:13;17.15;;;11.55;;
67776;SDS011;54576;52.020;5.536;2023-09-08T03:10:43;18.27;;;11.77;;
67776;SDS011;54576;52.020;5.536;2023-09-08T03:13:09;19.15;;;12.68;;
67776;SDS011;54576;52.020;5.536;2023-09-08T03:15:34;17.17;;;12.10;;
67776;SDS011;54576;52.020;5.536;2023-09-08T03:18:00;16.73;;;12.88;;
67776;SDS011;54576;52.020;5.536;2023-09-08T03:20:27;18.05;;;12.13;;
67776;SDS011;54576;52.020;5.536;2023-09-08T03:22:53;15.15;;;11.25;;
67776;SDS011;54576;52.020;5.536;2023-09-08T03:25:19;27.65;;;12.77;;
67776;SDS011;54576;52.020;5.536;2023-09-08T03:27:45;20.50;;;12.73;;
67776;SDS011;54576;52.020;5.536;2023-09-08T03:30:12;18.25;;;12.00;;
67776;SDS011;54576;52.020;5.536;2023-09-08T03:32:38;19.13;;;11.98;;
67776;SDS011;54576;52.020;5.536;2023-09-08T03:35:04;17.25;;;12.80;;
67776;SDS011;54576;52.020;5.536;2023-09-08T03:37:36;15.43;;;11.63;;
67776;SDS011;54576;52.020;5.536;2023-09-08T03:40:02;16.95;;;13.10;;
67776;SDS011;54576;52.020;5.536;2023-09-08T03:42:31;19.45;;;11.68;;
67776;SDS011;54576;52.020;5.536;2023-09-08T03:44:57;22.27;;;12.70;;
67776;SDS011;54576;52.020;5.536;2023-09-08T03:47:23;19.55;;;12.15;;
67776;SDS011;54576;52.020;5.536;2023-09-08T03:49:49;22.00;;;12.90;;
67776;SDS011;54576;52.020;5.536;2023-09-08T03:52:15;23.25;;;11.93;;
67776;SDS011;54576;52.020;5.536;2023-09-08T03:54:41;20.52;;;13.00;;
67776;SDS011;54576;52.020;5.536;2023-09-08T03:57:07;19.92;;;12.00;;
67776;SDS011;54576;52.020;5.536;2023-09-08T03:59:33;18.73;;;12.80;;
67776;SDS011;54576;52.020;5.536;2023-09-08T04:01:59;18.17;;;12.10;;
67776;SDS011;54576;52.020;5.536;2023-09-08T04:04:26;26.40;;;12.32;;
67776;SDS011;54576;52.020;5.536;2023-09-08T04:06:52;26.63;;;13.20;;
67776;SDS011;54576;52.020;5.536;2023-09-08T04:09:18;18.92;;;13.20;;
67776;SDS011;54576;52.020;5.536;2023-09-08T04:11:44;19.45;;;11.65;;
67776;SDS011;54576;52.020;5.536;2023-09-08T04:14:10;21.67;;;12.77;;
67776;SDS011;54576;52.020;5.536;2023-09-08T04:16:36;17.20;;;12.32;;
67776;SDS011;54576;52.020;5.536;2023-09-08T04:19:02;17.95;;;12.38;;
67776;SDS011;54576;52.020;5.536;2023-09-08T04:21:28;17.45;;;12.50;;
67776;SDS011;54576;52.020;5.536;2023-09-08T04:23:54;24.40;;;13.88;;
67776;SDS011;54576;52.020;5.536;2023-09-08T04:26:20;20.55;;;13.20;;
67776;SDS011;54576;52.020;5.536;2023-09-08T04:28:46;24.17;;;14.40;;
67776;SDS011;54576;52.020;5.536;2023-09-08T04:31:12;26.65;;;13.10;;
67776;SDS011;54576;52.020;5.536;2023-09-08T04:33:38;21.95;;;14.05;;
67776;SDS011;54576;52.020;5.536;2023-09-08T04:36:04;29.95;;;14.25;;
67776;SDS011;54576;52.020;5.536;2023-09-08T04:38:30;23.42;;;13.98;;
67776;SDS011;54576;52.020;5.536;2023-09-08T04:40:56;20.08;;;13.50;;
67776;SDS011;54576;52.020;5.536;2023-09-08T04:43:22;28.85;;;13.80;;
67776;SDS011;54576;52.020;5.536;2023-09-08T04:45:48;27.88;;;13.85;;
67776;SDS011;54576;52.020;5.536;2023-09-08T04:48:18;26.40;;;14.05;;
67776;SDS011;54576;52.020;5.536;2023-09-08T04:50:44;18.13;;;13.85;;
67776;SDS011;54576;52.020;5.536;2023-09-08T04:53:10;19.48;;;13.15;;
67776;SDS011;54576;52.020;5.536;2023-09-08T04:55:36;21.20;;;14.07;;
67776;SDS011;54576;52.020;5.536;2023-09-08T04:58:06;30.50;;;14.27;;
67776;SDS011;54576;52.020;5.536;2023-09-08T05:00:32;21.77;;;14.32;;
67776;SDS011;54576;52.020;5.536;2023-09-08T05:02:58;22.92;;;14.02;;
67776;SDS011;54576;52.020;5.536;2023-09-08T05:05:24;22.80;;;13.95;;
67776;SDS011;54576;52.020;5.536;2023-09-08T05:07:50;35.13;;;15.15;;
67776;SDS011;54576;52.020;5.536;2023-09-08T05:10:20;29.52;;;14.30;;
67776;SDS011;54576;52.020;5.536;2023-09-08T05:12:47;32.70;;;14.30;;
67776;SDS011;54576;52.020;5.536;2023-09-08T05:15:13;19.98;;;13.18;;
67776;SDS011;54576;52.020;5.536;2023-09-08T05:17:40;24.50;;;13.52;;
67776;SDS011;54576;52.020;5.536;2023-09-08T05:20:06;21.75;;;13.45;;
67776;SDS011;54576;52.020;5.536;2023-09-08T05:22:32;18.02;;;13.30;;
67776;SDS011;54576;52.020;5.536;2023-09-08T05:24:58;22.67;;;13.68;;
67776;SDS011;54576;52.020;5.536;2023-09-08T05:27:24;20.23;;;13.23;;
67776;SDS011;54576;52.020;5.536;2023-09-08T05:29:50;19.20;;;14.13;;
67776;SDS011;54576;52.020;5.536;2023-09-08T05:32:17;26.42;;;13.60;;
67776;SDS011;54576;52.020;5.536;2023-09-08T05:34:43;26.85;;;14.05;;
67776;SDS011;54576;52.020;5.536;2023-09-08T05:37:09;20.23;;;12.93;;
67776;SDS011;54576;52.020;5.536;2023-09-08T05:39:35;13.73;;;12.13;;
67776;SDS011;54576;52.020;5.536;2023-09-08T05:42:01;18.35;;;13.13;;
67776;SDS011;54576;52.020;5.536;2023-09-08T05:44:27;19.58;;;12.75;;
67776;SDS011;54576;52.020;5.536;2023-09-08T05:46:53;21.70;;;13.60;;
67776;SDS011;54576;52.020;5.536;2023-09-08T05:49:18;23.42;;;13.10;;
67776;SDS011;54576;52.020;5.536;2023-09-08T05:51:44;22.08;;;13.05;;
67776;SDS011;54576;52.020;5.536;2023-09-08T05:54:10;28.02;;;13.27;;
67776;SDS011;54576;52.020;5.536;2023-09-08T05:56:36;23.08;;;12.38;;
67776;SDS011;54576;52.020;5.536;2023-09-08T05:59:02;33.50;;;13.73;;
67776;SDS011;54576;52.020;5.536;2023-09-08T06:01:28;26.83;;;13.23;;
67776;SDS011;54576;52.020;5.536;2023-09-08T06:03:57;23.77;;;13.45;;
67776;SDS011;54576;52.020;5.536;2023-09-08T06:06:23;24.35;;;11.73;;
67776;SDS011;54576;52.020;5.536;2023-09-08T06:08:50;25.90;;;12.43;;
67776;SDS011;54576;52.020;5.536;2023-09-08T06:11:15;25.63;;;13.70;;
67776;SDS011;54576;52.020;5.536;2023-09-08T06:13:41;22.70;;;13.43;;
67776;SDS011;54576;52.020;5.536;2023-09-08T06:16:07;18.50;;;13.10;;
67776;SDS011;54576;52.020;5.536;2023-09-08T06:18:36;24.27;;;13.00;;
67776;SDS011;54576;52.020;5.536;2023-09-08T06:23:33;16.77;;;11.90;;
67776;SDS011;54576;52.020;5.536;2023-09-08T06:25:59;32.75;;;12.40;;
67776;SDS011;54576;52.020;5.536;2023-09-08T06:28:26;25.75;;;11.10;;
67776;SDS011;54576;52.020;5.536;2023-09-08T06:30:53;24.38;;;12.27;;
67776;SDS011;54576;52.020;5.536;2023-09-08T06:33:18;26.42;;;10.88;;
67776;SDS011;54576;52.020;5.536;2023-09-08T06:35:45;17.70;;;11.98;;
67776;SDS011;54576;52.020;5.536;2023-09-08T06:38:12;19.20;;;11.60;;
67776;SDS011;54576;52.020;5.536;2023-09-08T06:40:39;32.65;;;14.05;;
67776;SDS011;54576;52.020;5.536;2023-09-08T06:43:04;16.90;;;11.15;;
67776;SDS011;54576;52.020;5.536;2023-09-08T06:45:30;17.23;;;10.60;;
67776;SDS011;54576;52.020;5.536;2023-09-08T06:47:56;17.30;;;10.32;;
67776;SDS011;54576;52.020;5.536;2023-09-08T06:50:21;25.08;;;11.20;;
67776;SDS011;54576;52.020;5.536;2023-09-08T06:52:48;20.95;;;10.98;;
67776;SDS011;54576;52.020;5.536;2023-09-08T06:55:14;11.43;;;9.27;;
67776;SDS011;54576;52.020;5.536;2023-09-08T06:57:41;12.55;;;9.70;;
67776;SDS011;54576;52.020;5.536;2023-09-08T07:00:07;24.02;;;9.73;;
67776;SDS011;54576;52.020;5.536;2023-09-08T07:02:33;18.88;;;10.35;;
67776;SDS011;54576;52.020;5.536;2023-09-08T07:04:59;16.90;;;11.20;;
67776;SDS011;54576;52.020;5.536;2023-09-08T07:07:31;23.70;;;10.50;;
67776;SDS011;54576;52.020;5.536;2023-09-08T07:09:56;15.38;;;9.90;;
67776;SDS011;54576;52.020;5.536;2023-09-08T07:12:25;13.80;;;9.70;;
67776;SDS011;54576;52.020;5.536;2023-09-08T07:14:50;14.98;;;10.68;;
67776;SDS011;54576;52.020;5.536;2023-09-08T07:17:16;31.00;;;10.68;;
67776;SDS011;54576;52.020;5.536;2023-09-08T07:19:42;18.02;;;10.60;;
67776;SDS011;54576;52.020;5.536;2023-09-08T07:22:08;20.52;;;10.50;;
67776;SDS011;54576;52.020;5.536;2023-09-08T07:24:33;17.83;;;10.57;;
67776;SDS011;54576;52.020;5.536;2023-09-08T07:26:59;15.25;;;10.57;;
67776;SDS011;54576;52.020;5.536;2023-09-08T07:29:25;20.73;;;10.73;;
67776;SDS011;54576;52.020;5.536;2023-09-08T07:31:51;18.17;;;10.82;;
67776;SDS011;54576;52.020;5.536;2023-09-08T07:34:16;19.80;;;10.93;;
67776;SDS011;54576;52.020;5.536;2023-09-08T07:36:42;20.30;;;10.75;;
67776;SDS011;54576;52.020;5.536;2023-09-08T07:39:08;13.02;;;9.73;;
67776;SDS011;54576;52.020;5.536;2023-09-08T07:41:33;15.65;;;9.90;;
67776;SDS011;54576;52.020;5.536;2023-09-08T07:44:00;12.73;;;9.90;;
67776;SDS011;54576;52.020;5.536;2023-09-08T07:46:25;19.85;;;10.10;;
67776;SDS011;54576;52.020;5.536;2023-09-08T07:48:51;14.27;;;10.63;;
67776;SDS011;54576;52.020;5.536;2023-09-08T07:51:17;14.52;;;10.23;;
67776;SDS011;54576;52.020;5.536;2023-09-08T07:53:43;22.17;;;10.43;;
67776;SDS011;54576;52.020;5.536;2023-09-08T07:56:08;16.15;;;8.98;;
67776;SDS011;54576;52.020;5.536;2023-09-08T07:58:34;18.23;;;10.15;;
67776;SDS011;54576;52.020;5.536;2023-09-08T08:01:00;14.98;;;10.38;;
67776;SDS011;54576;52.020;5.536;2023-09-08T08:03:25;21.88;;;10.35;;
67776;SDS011;54576;52.020;5.536;2023-09-08T08:05:51;25.00;;;10.85;;
67776;SDS011;54576;52.020;5.536;2023-09-08T08:08:16;16.38;;;10.73;;
67776;SDS011;54576;52.020;5.536;2023-09-08T08:10:42;19.75;;;10.45;;
67776;SDS011;54576;52.020;5.536;2023-09-08T08:13:08;21.45;;;10.27;;
67776;SDS011;54576;52.020;5.536;2023-09-08T08:15:34;12.25;;;10.32;;
67776;SDS011;54576;52.020;5.536;2023-09-08T08:18:02;15.70;;;10.00;;
67776;SDS011;54576;52.020;5.536;2023-09-08T08:20:28;16.08;;;9.63;;
67776;SDS011;54576;52.020;5.536;2023-09-08T08:22:54;17.00;;;9.90;;
67776;SDS011;54576;52.020;5.536;2023-09-08T08:25:22;22.50;;;10.13;;
67776;SDS011;54576;52.020;5.536;2023-09-08T08:27:48;19.92;;;10.02;;
67776;SDS011;54576;52.020;5.536;2023-09-08T08:30:13;16.65;;;9.48;;
67776;SDS011;54576;52.020;5.536;2023-09-08T08:32:39;15.18;;;9.85;;
67776;SDS011;54576;52.020;5.536;2023-09-08T08:35:04;21.73;;;11.05;;
67776;SDS011;54576;52.020;5.536;2023-09-08T08:37:30;21.88;;;9.07;;
67776;SDS011;54576;52.020;5.536;2023-09-08T08:39:56;15.57;;;9.10;;
67776;SDS011;54576;52.020;5.536;2023-09-08T08:42:21;22.80;;;9.95;;
67776;SDS011;54576;52.020;5.536;2023-09-08T08:44:47;14.05;;;10.07;;
67776;SDS011;54576;52.020;5.536;2023-09-08T08:47:14;12.38;;;8.65;;
67776;SDS011;54576;52.020;5.536;2023-09-08T08:49:43;12.00;;;9.10;;
67776;SDS011;54576;52.020;5.536;2023-09-08T08:52:11;18.77;;;9.18;;
67776;SDS011;54576;52.020;5.536;2023-09-08T08:54:38;24.30;;;8.68;;
67776;SDS011;54576;52.020;5.536;2023-09-08T08:57:04;15.10;;;9.70;;
67776;SDS011;54576;52.020;5.536;2023-09-08T08:59:31;11.68;;;9.20;;
67776;SDS011;54576;52.020;5.536;2023-09-08T09:01:57;20.60;;;9.98;;
67776;SDS011;54576;52.020;5.536;2023-09-08T09:04:24;19.20;;;10.20;;
67776;SDS011;54576;52.020;5.536;2023-09-08T09:06:53;15.00;;;10.10;;
67776;SDS011;54576;52.020;5.536;2023-09-08T09:09:20;18.52;;;9.32;;
67776;SDS011;54576;52.020;5.536;2023-09-08T09:11:46;16.83;;;9.90;;
67776;SDS011;54576;52.020;5.536;2023-09-08T09:14:11;15.13;;;9.40;;
67776;SDS011;54576;52.020;5.536;2023-09-08T09:16:40;21.60;;;11.48;;
67776;SDS011;54576;52.020;5.536;2023-09-08T09:19:06;21.15;;;10.13;;
67776;SDS011;54576;52.020;5.536;2023-09-08T09:24:13;16.17;;;10.88;;
67776;SDS011;54576;52.020;5.536;2023-09-08T09:26:39;29.15;;;10.10;;
67776;SDS011;54576;52.020;5.536;2023-09-08T09:29:11;22.23;;;10.43;;
67776;SDS011;54576;52.020;5.536;2023-09-08T09:31:56;12.95;;;9.95;;
67776;SDS011;54576;52.020;5.536;2023-09-08T09:34:32;14.13;;;9.73;;
67776;SDS011;54576;52.020;5.536;2023-09-08T09:36:59;14.48;;;8.90;;
67776;SDS011;54576;52.020;5.536;2023-09-08T09:39:25;19.67;;;10.48;;
67776;SDS011;54576;52.020;5.536;2023-09-08T09:41:56;15.95;;;9.20;;
67776;SDS011;54576;52.020;5.536;2023-09-08T09:44:23;16.00;;;9.05;;
67776;SDS011;54576;52.020;5.536;2023-09-08T09:46:53;11.98;;;8.25;;
67776;SDS011;54576;52.020;5.536;2023-09-08T09:49:19;13.35;;;7.20;;
67776;SDS011;54576;52.020;5.536;2023-09-08T09:51:48;15.48;;;7.65;;
67776;SDS011;54576;52.020;5.536;2023-09-08T09:54:16;16.60;;;8.27;;
67776;SDS011;54576;52.020;5.536;2023-09-08T09:56:42;17.50;;;8.77;;
67776;SDS011;54576;52.020;5.536;2023-09-08T09:59:08;18.92;;;8.68;;
67776;SDS011;54576;52.020;5.536;2023-09-08T10:01:38;18.70;;;8.00;;
67776;SDS011;54576;52.020;5.536;2023-09-08T10:04:05;18.25;;;8.13;;
67776;SDS011;54576;52.020;5.536;2023-09-08T10:06:40;15.30;;;7.97;;
67776;SDS011;54576;52.020;5.536;2023-09-08T10:09:06;16.23;;;8.70;;
67776;SDS011;54576;52.020;5.536;2023-09-08T10:11:42;17.42;;;7.85;;
67776;SDS011;54576;52.020;5.536;2023-09-08T10:14:10;20.40;;;8.73;;
67776;SDS011;54576;52.020;5.536;2023-09-08T10:16:38;16.33;;;7.90;;
67776;SDS011;54576;52.020;5.536;2023-09-08T10:19:07;13.48;;;7.40;;
67776;SDS011;54576;52.020;5.536;2023-09-08T10:21:40;17.95;;;9.45;;
67776;SDS011;54576;52.020;5.536;2023-09-08T10:24:13;17.23;;;9.68;;
67776;SDS011;54576;52.020;5.536;2023-09-08T10:26:43;18.00;;;9.10;;
67776;SDS011;54576;52.020;5.536;2023-09-08T10:29:11;15.38;;;8.52;;
67776;SDS011;54576;52.020;5.536;2023-09-08T10:31:38;12.20;;;8.18;;
67776;SDS011;54576;52.020;5.536;2023-09-08T10:34:04;22.85;;;8.88;;
67776;SDS011;54576;52.020;5.536;2023-09-08T10:36:30;14.63;;;8.50;;
67776;SDS011;54576;52.020;5.536;2023-09-08T10:47:14;15.85;;;9.32;;
67776;SDS011;54576;52.020;5.536;2023-09-08T10:49:43;11.52;;;7.28;;
67776;SDS011;54576;52.020;5.536;2023-09-08T10:52:11;15.80;;;8.25;;
67776;SDS011;54576;52.020;5.536;2023-09-08T10:54:40;17.65;;;9.07;;
67776;SDS011;54576;52.020;5.536;2023-09-08T10:57:07;13.73;;;8.65;;
67776;SDS011;54576;52.020;5.536;2023-09-08T10:59:38;13.00;;;8.35;;
67776;SDS011;54576;52.020;5.536;2023-09-08T11:02:04;24.33;;;8.85;;
67776;SDS011;54576;52.020;5.536;2023-09-08T11:04:30;19.55;;;9.27;;
67776;SDS011;54576;52.020;5.536;2023-09-08T11:06:58;16.10;;;8.55;;
67776;SDS011;54576;52.020;5.536;2023-09-08T11:09:24;16.15;;;8.63;;
67776;SDS011;54576;52.020;5.536;2023-09-08T11:11:50;15.27;;;8.70;;
67776;SDS011;54576;52.020;5.536;2023-09-08T11:14:16;11.60;;;8.45;;
67776;SDS011;54576;52.020;5.536;2023-09-08T11:16:42;21.17;;;9.35;;
67776;SDS011;54576;52.020;5.536;2023-09-08T11:19:08;17.75;;;7.50;;
67776;SDS011;54576;52.020;5.536;2023-09-08T11:21:35;19.08;;;9.05;;
67776;SDS011;54576;52.020;5.536;2023-09-08T11:24:02;11.55;;;6.97;;
67776;SDS011;54576;52.020;5.536;2023-09-08T11:26:29;18.35;;;8.00;;
67776;SDS011;54576;52.020;5.536;2023-09-08T11:28:58;17.38;;;8.07;;
67776;SDS011;54576;52.020;5.536;2023-09-08T11:31:24;11.32;;;7.05;;
67776;SDS011;54576;52.020;5.536;2023-09-08T11:33:54;21.70;;;7.55;;
67776;SDS011;54576;52.020;5.536;2023-09-08T11:36:20;12.30;;;6.75;;
67776;SDS011;54576;52.020;5.536;2023-09-08T11:38:46;16.05;;;7.47;;
67776;SDS011;54576;52.020;5.536;2023-09-08T11:41:12;10.77;;;6.97;;
67776;SDS011;54576;52.020;5.536;2023-09-08T11:43:38;16.25;;;6.25;;
67776;SDS011;54576;52.020;5.536;2023-09-08T11:46:04;22.40;;;7.47;;
67776;SDS011;54576;52.020;5.536;2023-09-08T11:48:31;12.75;;;7.30;;
67776;SDS011;54576;52.020;5.536;2023-09-08T11:50:57;22.88;;;7.03;;
67776;SDS011;54576;52.020;5.536;2023-09-08T11:53:24;18.17;;;7.95;;
67776;SDS011;54576;52.020;5.536;2023-09-08T11:55:50;21.55;;;7.25;;
67776;SDS011;54576;52.020;5.536;2023-09-08T11:58:16;14.95;;;6.32;;
67776;SDS011;54576;52.020;5.536;2023-09-08T12:00:44;7.80;;;6.03;;
67776;SDS011;54576;52.020;5.536;2023-09-08T12:03:13;20.02;;;7.35;;
67776;SDS011;54576;52.020;5.536;2023-09-08T12:05:50;13.73;;;6.40;;
67776;SDS011;54576;52.020;5.536;2023-09-08T12:08:16;17.77;;;6.63;;
67776;SDS011;54576;52.020;5.536;2023-09-08T12:10:42;18.90;;;6.18;;
67776;SDS011;54576;52.020;5.536;2023-09-08T12:13:09;8.30;;;4.70;;
67776;SDS011;54576;52.020;5.536;2023-09-08T12:18:01;9.38;;;4.70;;
67776;SDS011;54576;52.020;5.536;2023-09-08T12:20:28;8.82;;;5.25;;
67776;SDS011;54576;52.020;5.536;2023-09-08T12:22:56;13.55;;;5.30;;
67776;SDS011;54576;52.020;5.536;2023-09-08T12:27:49;20.80;;;5.57;;
67776;SDS011;54576;52.020;5.536;2023-09-08T12:30:23;5.75;;;4.28;;
67776;SDS011;54576;52.020;5.536;2023-09-08T12:32:57;12.18;;;5.93;;
67776;SDS011;54576;52.020;5.536;2023-09-08T12:35:24;11.10;;;5.80;;
67776;SDS011;54576;52.020;5.536;2023-09-08T12:38:08;14.18;;;6.03;;
67776;SDS011;54576;52.020;5.536;2023-09-08T12:40:34;21.45;;;6.35;;
67776;SDS011;54576;52.020;5.536;2023-09-08T12:43:01;8.45;;;5.47;;
67776;SDS011;54576;52.020;5.536;2023-09-08T12:45:27;7.57;;;5.35;;
67776;SDS011;54576;52.020;5.536;2023-09-08T12:47:53;24.42;;;5.82;;
67776;SDS011;54576;52.020;5.536;2023-09-08T12:50:20;9.02;;;5.50;;
67776;SDS011;54576;52.020;5.536;2023-09-08T12:52:46;13.50;;;5.13;;
67776;SDS011;54576;52.020;5.536;2023-09-08T12:55:12;19.95;;;5.30;;
67776;SDS011;54576;52.020;5.536;2023-09-08T12:57:38;15.98;;;5.78;;
67776;SDS011;54576;52.020;5.536;2023-09-08T13:00:04;9.05;;;5.00;;
67776;SDS011;54576;52.020;5.536;2023-09-08T13:02:33;11.10;;;5.72;;
67776;SDS011;54576;52.020;5.536;2023-09-08T13:05:00;7.25;;;5.32;;
67776;SDS011;54576;52.020;5.536;2023-09-08T13:07:27;11.47;;;5.17;;
67776;SDS011;54576;52.020;5.536;2023-09-08T13:09:53;11.13;;;5.03;;
67776;SDS011;54576;52.020;5.536;2023-09-08T13:12:19;14.60;;;5.70;;
67776;SDS011;54576;52.020;5.536;2023-09-08T13:14:45;14.45;;;5.28;;
67776;SDS011;54576;52.020;5.536;2023-09-08T13:17:11;10.07;;;4.55;;
67776;SDS011;54576;52.020;5.536;2023-09-08T13:19:37;11.23;;;4.68;;
67776;SDS011;54576;52.020;5.536;2023-09-08T13:22:04;11.07;;;4.68;;
67776;SDS011;54576;52.020;5.536;2023-09-08T13:24:30;13.10;;;4.85;;
67776;SDS011;54576;52.020;5.536;2023-09-08T13:26:57;14.20;;;5.60;;
67776;SDS011;54576;52.020;5.536;2023-09-08T13:29:23;11.73;;;5.50;;
67776;SDS011;54576;52.020;5.536;2023-09-08T13:31:49;12.90;;;5.97;;
67776;SDS011;54576;52.020;5.536;2023-09-08T13:34:15;10.48;;;5.50;;
67776;SDS011;54576;52.020;5.536;2023-09-08T13:36:41;8.75;;;5.45;;
67776;SDS011;54576;52.020;5.536;2023-09-08T13:39:07;16.00;;;5.43;;
67776;SDS011;54576;52.020;5.536;2023-09-08T13:41:52;10.32;;;5.85;;
67776;SDS011;54576;52.020;5.536;2023-09-08T13:44:23;10.77;;;5.05;;
67776;SDS011;54576;52.020;5.536;2023-09-08T13:46:49;6.93;;;5.65;;
67776;SDS011;54576;52.020;5.536;2023-09-08T13:49:16;16.95;;;5.70;;
67776;SDS011;54576;52.020;5.536;2023-09-08T13:51:42;14.20;;;5.78;;
67776;SDS011;54576;52.020;5.536;2023-09-08T13:54:08;17.92;;;6.10;;
67776;SDS011;54576;52.020;5.536;2023-09-08T13:56:35;15.05;;;6.10;;
67776;SDS011;54576;52.020;5.536;2023-09-08T13:59:01;19.75;;;6.38;;
67776;SDS011;54576;52.020;5.536;2023-09-08T14:01:27;16.40;;;6.28;;
67776;SDS011;54576;52.020;5.536;2023-09-08T14:03:54;15.43;;;6.18;;
67776;SDS011;54576;52.020;5.536;2023-09-08T14:06:21;8.40;;;5.20;;
67776;SDS011;54576;52.020;5.536;2023-09-08T14:08:46;14.98;;;5.07;;
67776;SDS011;54576;52.020;5.536;2023-09-08T14:11:12;12.15;;;5.03;;
67776;SDS011;54576;52.020;5.536;2023-09-08T14:13:38;14.23;;;5.20;;
67776;SDS011;54576;52.020;5.536;2023-09-08T14:16:04;14.07;;;5.03;;
67776;SDS011;54576;52.020;5.536;2023-09-08T14:18:30;10.95;;;4.82;;
67776;SDS011;54576;52.020;5.536;2023-09-08T14:20:56;10.82;;;4.55;;
67776;SDS011;54576;52.020;5.536;2023-09-08T14:23:21;13.90;;;4.72;;
67776;SDS011;54576;52.020;5.536;2023-09-08T14:25:47;9.73;;;4.10;;
67776;SDS011;54576;52.020;5.536;2023-09-08T14:28:13;9.85;;;4.60;;
67776;SDS011;54576;52.020;5.536;2023-09-08T14:30:38;7.38;;;4.57;;
67776;SDS011;54576;52.020;5.536;2023-09-08T14:33:05;9.48;;;4.65;;
67776;SDS011;54576;52.020;5.536;2023-09-08T14:35:32;14.77;;;5.10;;
67776;SDS011;54576;52.020;5.536;2023-09-08T14:37:57;11.77;;;5.10;;
67776;SDS011;54576;52.020;5.536;2023-09-08T14:40:23;12.82;;;4.60;;
67776;SDS011;54576;52.020;5.536;2023-09-08T14:42:49;14.68;;;4.70;;
67776;SDS011;54576;52.020;5.536;2023-09-08T14:45:14;12.30;;;4.88;;
67776;SDS011;54576;52.020;5.536;2023-09-08T14:47:40;15.18;;;4.68;;